Time;durP1;ratioP1;P1;durP2;ratioP2;P2;SDS_P1;SDS_P2;PMS_P1;PMS_P2;Temp;Humidity;BMP_temperature;BMP_pressure;BME280_temperature;BME280_humidity;BME280_pressure;Samples;Min_cycle;Max_cycle;Signal;HPM_P1;HPM_P2
2023/03/09 00:00:21;;;;;;;0.93;0.85;;;;;;;4.26;100.00;98384.31;5050308;28;20040;-49
2023/03/09 00:02:47;;;;;;;1.48;0.93;;;;;;;4.31;100.00;98387.16;5052592;28;20028;-52
2023/03/09 00:05:16;;;;;;;1.75;0.90;;;;;;;4.21;100.00;98389.34;5055895;28;20497;-48
2023/03/09 00:07:42;;;;;;;0.95;0.80;;;;;;;4.08;100.00;98396.22;5045355;28;20043;-48
2023/03/09 00:10:10;;;;;;;0.60;0.60;;;;;;;4.28;100.00;98393.59;5051096;28;20520;-48
2023/03/09 00:12:35;;;;;;;0.38;0.38;;;;;;;4.33;100.00;98390.38;5052041;28;20481;-49
2023/03/09 00:15:01;;;;;;;0.60;0.60;;;;;;;4.26;100.00;98402.69;5050102;28;20040;-49
2023/03/09 00:17:26;;;;;;;0.30;0.20;;;;;;;4.29;100.00;98389.19;5043053;28;20041;-49
2023/03/09 00:20:00;;;;;;;0.32;0.17;;;;;;;4.28;100.00;98380.47;5042672;28;20033;-49
2023/03/09 00:22:26;;;;;;;0.57;0.57;;;;;;;4.30;100.00;98370.59;5051549;28;20033;-50
2023/03/09 00:24:55;;;;;;;0.68;0.63;;;;;;;4.35;100.00;98367.38;5046869;28;20033;-48
2023/03/09 00:27:20;;;;;;;1.05;0.65;;;;;;;4.26;100.00;98364.16;5048378;28;20061;-50
2023/03/09 00:29:46;;;;;;;1.30;1.20;;;;;;;4.28;100.00;98382.31;5054222;28;20462;-53
2023/03/09 00:32:11;;;;;;;1.55;0.95;;;;;;;4.35;100.00;98399.66;5054652;28;20112;-52
2023/03/09 00:34:36;;;;;;;1.58;0.90;;;;;;;4.35;100.00;98404.09;5054064;28;20037;-48
2023/03/09 00:37:02;;;;;;;0.82;0.55;;;;;;;4.31;100.00;98408.97;5043584;28;20041;-47
2023/03/09 00:39:27;;;;;;;0.32;0.32;;;;;;;4.25;100.00;98393.22;5050224;28;20374;-50
2023/03/09 00:41:52;;;;;;;0.60;0.52;;;;;;;4.35;100.00;98388.38;5046869;28;20028;-49
2023/03/09 00:44:18;;;;;;;0.80;0.47;;;;;;;4.36;100.00;98389.97;5050146;28;20500;-47
2023/03/09 00:46:43;;;;;;;1.75;0.75;;;;;;;4.28;100.00;98413.78;5052287;28;20528;-53
2023/03/09 00:49:11;;;;;;;1.08;0.60;;;;;;;4.34;100.00;98419.06;5048103;28;20571;-50
2023/03/09 00:51:37;;;;;;;0.57;0.57;;;;;;;4.25;100.00;98422.88;5053886;28;20113;-50
2023/03/09 00:54:03;;;;;;;1.20;0.80;;;;;;;4.27;100.00;98423.47;5054570;28;20162;-49
2023/03/09 00:56:29;;;;;;;0.50;0.30;;;;;;;4.27;100.00;98433.16;5045644;28;20029;-51
2023/03/09 00:58:56;;;;;;;0.50;0.47;;;;;;;4.36;100.00;98445.91;5053479;28;20032;-47
2023/03/09 01:01:22;;;;;;;0.60;0.60;;;;;;;4.34;100.00;98447.91;5051004;28;20021;-52
2023/03/09 01:03:47;;;;;;;0.63;0.63;;;;;;;4.32;100.00;98467.50;5056671;28;20016;-51
2023/03/09 01:06:13;;;;;;;0.50;0.30;;;;;;;4.41;100.00;98468.91;5050879;28;20032;-48
2023/03/09 01:08:39;;;;;;;0.63;0.57;;;;;;;4.30;100.00;98466.88;5055834;28;20044;-48
2023/03/09 01:11:07;;;;;;;0.60;0.60;;;;;;;4.27;100.00;98465.47;5050641;28;20029;-48
2023/03/09 01:13:32;;;;;;;0.70;0.25;;;;;;;4.31;100.00;98460.59;5043356;28;20116;-49
2023/03/09 01:15:57;;;;;;;1.08;0.50;;;;;;;4.25;100.00;98474.53;5056973;28;20455;-50
2023/03/09 01:18:23;;;;;;;1.40;0.95;;;;;;;4.17;100.00;98487.84;5050976;28;20082;-47
2023/03/09 01:20:48;;;;;;;0.40;0.35;;;;;;;4.15;100.00;98483.56;5050091;28;20390;-53
2023/03/09 01:23:14;;;;;;;0.47;0.32;;;;;;;4.23;100.00;98479.16;5059563;28;20254;-48
2023/03/09 01:25:39;;;;;;;0.55;0.40;;;;;;;4.18;100.00;98484.19;5045473;28;20114;-53
2023/03/09 01:28:04;;;;;;;1.08;0.50;;;;;;;4.19;100.00;98484.00;5047341;28;20083;-50
2023/03/09 01:30:31;;;;;;;0.73;0.68;;;;;;;4.14;100.00;98489.84;5053416;28;20036;-49
2023/03/09 01:32:56;;;;;;;2.25;0.68;;;;;;;4.28;100.00;98482.81;5052378;28;20185;-50
2023/03/09 01:35:22;;;;;;;0.70;0.47;;;;;;;4.31;100.00;98487.69;5042694;28;20116;-48
2023/03/09 01:37:47;;;;;;;0.63;0.63;;;;;;;4.22;100.00;98483.59;5051944;28;20361;-48
2023/03/09 01:40:19;;;;;;;0.52;0.52;;;;;;;4.29;100.00;98491.50;5045842;28;20072;-50
2023/03/09 01:42:53;;;;;;;0.75;0.70;;;;;;;4.15;100.00;98501.94;5053327;28;20024;-47
2023/03/09 01:45:18;;;;;;;0.40;0.40;;;;;;;4.23;100.00;98513.25;5043718;28;20025;-47
2023/03/09 01:47:45;;;;;;;0.70;0.55;;;;;;;4.26;100.00;98518.94;5050363;28;20466;-51
2023/03/09 01:50:13;;;;;;;0.45;0.20;;;;;;;4.33;100.00;98509.25;5049620;28;20051;-49
2023/03/09 01:52:40;;;;;;;2.45;0.45;;;;;;;4.35;100.00;98499.38;5057901;28;20456;-50
2023/03/09 01:55:09;;;;;;;0.90;0.43;;;;;;;4.31;100.00;98492.09;5048933;28;20033;-47
2023/03/09 01:57:56;;;;;;;0.40;0.40;;;;;;;4.38;100.00;98491.09;5050587;28;20036;-50
2023/03/09 02:00:24;;;;;;;1.08;0.77;;;;;;;4.44;100.00;98486.88;5046782;28;20545;-52
2023/03/09 02:03:04;;;;;;;0.73;0.63;;;;;;;4.51;100.00;98495.56;5056231;28;20119;-48
2023/03/09 02:05:36;;;;;;;1.25;0.80;;;;;;;4.46;100.00;98500.59;5049620;28;20044;-48
2023/03/09 02:08:02;;;;;;;;;;;;;;;4.56;100.00;98510.72;5045524;28;20052;-47
2023/03/09 02:10:34;;;;;;;0.93;0.93;;;;;;;4.45;100.00;98520.00;5042675;28;19917;-51
2023/03/09 02:13:06;;;;;;;0.55;0.55;;;;;;;4.53;100.00;98529.50;5057808;28;20032;-49
2023/03/09 02:15:31;;;;;;;0.88;0.50;;;;;;;4.52;100.00;98535.75;5052560;28;20070;-53
2023/03/09 02:17:56;;;;;;;0.95;0.50;;;;;;;4.51;100.00;98532.31;5050923;28;20394;-47
2023/03/09 02:20:32;;;;;;;1.17;1.02;;;;;;;4.46;100.00;98528.66;5045456;28;20154;-53
2023/03/09 02:22:58;;;;;;;0.90;0.57;;;;;;;4.48;100.00;98522.19;5051050;28;20378;-48
2023/03/09 02:25:23;;;;;;;3.30;1.02;;;;;;;4.46;100.00;98511.09;5043700;28;20028;-50
2023/03/09 02:27:51;;;;;;;1.08;0.95;;;;;;;4.48;100.00;98509.09;5047596;28;20033;-50
2023/03/09 02:30:16;;;;;;;1.63;0.47;;;;;;;4.51;100.00;98508.69;5046327;28;20029;-51
2023/03/09 02:32:42;;;;;;;0.77;0.77;;;;;;;4.52;100.00;98504.25;5054195;28;20031;-49
2023/03/09 02:35:09;;;;;;;0.85;0.85;;;;;;;4.49;100.00;98520.38;5044827;28;20025;-52
2023/03/09 02:37:40;;;;;;;0.93;0.85;;;;;;;4.49;100.00;98536.13;5051846;28;20135;-47
2023/03/09 02:40:05;;;;;;;1.20;0.70;;;;;;;4.51;100.00;98545.41;5046492;28;20116;-48
2023/03/09 02:42:31;;;;;;;1.10;0.63;;;;;;;4.64;100.00;98554.34;5053591;28;20107;-47
2023/03/09 02:44:57;;;;;;;0.70;0.70;;;;;;;4.65;100.00;98572.53;5052400;28;20033;-50
2023/03/09 02:47:23;;;;;;;2.80;0.47;;;;;;;4.70;100.00;98572.75;5051024;28;20057;-53
2023/03/09 02:49:49;;;;;;;1.05;1.02;;;;;;;4.69;100.00;98565.84;5048232;28;20394;-48
2023/03/09 02:52:17;;;;;;;0.40;0.28;;;;;;;4.75;100.00;98574.75;5051193;28;20028;-47
2023/03/09 02:54:42;;;;;;;1.02;0.75;;;;;;;4.75;100.00;98580.81;5049918;28;20035;-49
2023/03/09 02:57:08;;;;;;;1.20;0.93;;;;;;;4.72;100.00;98578.56;5048993;28;20028;-49
2023/03/09 02:59:33;;;;;;;5.00;0.73;;;;;;;4.14;100.00;98579.03;5044508;28;20039;-51
2023/03/09 03:01:58;;;;;;;1.60;1.50;;;;;;;4.41;100.00;98575.69;5050877;28;20036;-50
2023/03/09 03:04:24;;;;;;;3.28;0.52;;;;;;;4.51;100.00;98584.00;5039111;28;20854;-49
2023/03/09 03:06:49;;;;;;;2.22;1.13;;;;;;;4.63;100.00;98581.59;5046189;28;20051;-47
2023/03/09 03:09:14;;;;;;;0.93;0.80;;;;;;;4.68;100.00;98594.94;5039715;28;20550;-48
2023/03/09 03:11:40;;;;;;;1.10;0.77;;;;;;;4.59;100.00;98589.88;5048032;28;20052;-52
2023/03/09 03:14:05;;;;;;;1.60;1.17;;;;;;;4.62;100.00;98599.19;5048694;28;20136;-48
2023/03/09 03:16:33;;;;;;;0.70;0.52;;;;;;;4.63;100.00;98599.97;5044079;28;20171;-50
2023/03/09 03:18:58;;;;;;;3.28;0.90;;;;;;;4.59;100.00;98597.75;5048434;28;20029;-50
2023/03/09 03:21:24;;;;;;;1.92;1.13;;;;;;;4.62;100.00;98604.44;5047209;28;20186;-53
2023/03/09 03:23:50;;;;;;;3.53;1.88;;;;;;;4.64;100.00;98612.09;5045845;28;20112;-48
2023/03/09 03:26:16;;;;;;;1.52;0.90;;;;;;;4.12;100.00;98619.56;5047750;28;20397;-48
2023/03/09 03:28:41;;;;;;;1.13;1.08;;;;;;;3.79;100.00;98624.63;5043046;28;20028;-48
2023/03/09 03:31:07;;;;;;;1.73;0.77;;;;;;;4.31;100.00;98624.09;5050791;28;20029;-49
2023/03/09 03:33:32;;;;;;;1.38;0.77;;;;;;;4.51;100.00;98618.09;5057357;28;20151;-49
2023/03/09 03:35:58;;;;;;;2.30;1.50;;;;;;;4.53;100.00;98623.97;5048347;28;20025;-50
2023/03/09 03:38:23;;;;;;;2.55;1.30;;;;;;;4.47;100.00;98620.31;5047181;28;20107;-49
2023/03/09 03:40:48;;;;;;;1.58;0.98;;;;;;;4.47;100.00;98619.53;5048290;28;20151;-53
2023/03/09 03:43:14;;;;;;;1.90;0.90;;;;;;;4.45;100.00;98621.53;5059058;28;20077;-49
2023/03/09 03:45:40;;;;;;;3.03;1.95;;;;;;;4.45;100.00;98622.34;5050621;28;20036;-50
2023/03/09 03:48:06;;;;;;;1.85;1.10;;;;;;;4.56;100.00;98627.00;5051941;28;20025;-51
2023/03/09 03:50:31;;;;;;;2.22;1.27;;;;;;;4.60;100.00;98624.81;5049900;28;20033;-51
2023/03/09 03:52:57;;;;;;;1.25;0.85;;;;;;;4.56;100.00;98627.00;5044660;28;20485;-50
2023/03/09 03:55:22;;;;;;;1.05;0.88;;;;;;;4.56;100.00;98611.25;5049612;28;20099;-49
2023/03/09 03:57:48;;;;;;;2.00;1.35;;;;;;;4.49;100.00;98607.00;5051798;28;20033;-48
2023/03/09 04:00:13;;;;;;;3.75;1.27;;;;;;;4.52;100.00;98610.06;5051861;28;20036;-48
2023/03/09 04:02:39;;;;;;;1.52;1.00;;;;;;;4.57;100.00;98612.88;5074808;28;20095;-54
2023/03/09 04:05:05;;;;;;;1.15;0.95;;;;;;;4.47;100.00;98599.34;5044591;28;20238;-50
2023/03/09 04:07:31;;;;;;;2.53;1.45;;;;;;;4.53;100.00;98616.09;5042443;28;20047;-49
2023/03/09 04:09:56;;;;;;;5.65;1.13;;;;;;;4.42;100.00;98609.63;5039281;28;20486;-50
2023/03/09 04:12:22;;;;;;;1.10;1.05;;;;;;;4.43;100.00;98626.16;5047774;28;20025;-47
2023/03/09 04:14:47;;;;;;;2.03;1.48;;;;;;;4.33;100.00;98629.94;5052543;28;20112;-52
2023/03/09 04:17:12;;;;;;;1.98;1.27;;;;;;;4.37;100.00;98633.81;5042289;28;20058;-47
2023/03/09 04:19:38;;;;;;;1.63;1.05;;;;;;;4.44;100.00;98630.38;5050487;28;20524;-48
2023/03/09 04:22:03;;;;;;;1.40;1.10;;;;;;;4.51;100.00;98634.66;5047498;28;20045;-50
2023/03/09 04:24:29;;;;;;;1.65;1.55;;;;;;;4.53;100.00;98622.16;5051717;28;20075;-50
2023/03/09 04:26:55;;;;;;;2.65;0.98;;;;;;;4.52;100.00;98622.38;5049755;28;20362;-49
2023/03/09 04:29:20;;;;;;;2.67;1.33;;;;;;;4.47;100.00;98628.19;5045765;28;20059;-48
2023/03/09 04:31:46;;;;;;;1.15;0.85;;;;;;;4.59;100.00;98624.00;5050996;28;20037;-48
2023/03/09 04:34:11;;;;;;;2.10;1.10;;;;;;;4.60;100.00;98635.31;5051866;28;20021;-50
2023/03/09 04:36:37;;;;;;;2.20;0.95;;;;;;;4.64;100.00;98640.97;5055039;28;20055;-52
2023/03/09 04:39:04;;;;;;;1.52;0.98;;;;;;;4.72;100.00;98644.22;5041817;28;20095;-51
2023/03/09 04:41:30;;;;;;;1.23;0.88;;;;;;;4.70;100.00;98640.16;5048328;28;20516;-49
2023/03/09 04:43:55;;;;;;;1.05;0.70;;;;;;;4.70;100.00;98655.91;5054416;28;20048;-49
2023/03/09 04:46:21;;;;;;;1.50;1.13;;;;;;;4.79;100.00;98660.00;5047216;28;20029;-53
2023/03/09 04:48:46;;;;;;;1.55;0.93;;;;;;;4.89;100.00;98657.00;5048355;28;20058;-50
2023/03/09 04:51:12;;;;;;;1.27;0.75;;;;;;;4.92;100.00;98667.09;5051042;28;20094;-53
2023/03/09 04:53:38;;;;;;;1.08;0.88;;;;;;;4.85;100.00;98661.81;5044149;28;20033;-49
2023/03/09 04:56:04;;;;;;;1.75;0.95;;;;;;;4.83;100.00;98671.72;5047769;28;20029;-53
2023/03/09 04:58:29;;;;;;;1.27;0.93;;;;;;;4.86;100.00;98681.84;5049639;28;20025;-50
2023/03/09 05:00:54;;;;;;;1.88;1.00;;;;;;;4.91;100.00;98687.31;5046576;28;20060;-51
2023/03/09 05:03:20;;;;;;;2.80;1.13;;;;;;;4.91;100.00;98689.94;5059212;28;20082;-48
2023/03/09 05:05:45;;;;;;;2.00;1.00;;;;;;;4.87;100.00;98691.31;5049608;28;20044;-52
2023/03/09 05:08:10;;;;;;;0.65;0.65;;;;;;;4.95;100.00;98693.75;5042247;28;20020;-51
2023/03/09 05:10:36;;;;;;;3.53;1.15;;;;;;;4.92;100.00;98677.59;5048687;28;20404;-51
2023/03/09 05:13:01;;;;;;;1.65;1.13;;;;;;;4.80;100.00;98672.94;5055235;28;20022;-49
2023/03/09 05:15:27;;;;;;;1.30;1.02;;;;;;;4.68;100.00;98658.75;5047422;28;20021;-51
2023/03/09 05:17:52;;;;;;;1.52;1.42;;;;;;;4.63;100.00;98670.84;5050385;28;20128;-49
2023/03/09 05:20:17;;;;;;;1.80;1.00;;;;;;;4.57;100.00;98675.09;5044955;28;20029;-49
2023/03/09 05:22:43;;;;;;;1.50;0.98;;;;;;;4.50;100.00;98675.03;5044019;28;20032;-48
2023/03/09 05:25:09;;;;;;;0.85;0.60;;;;;;;4.53;100.00;98652.84;5052764;28;20032;-47
2023/03/09 05:27:34;;;;;;;1.35;1.08;;;;;;;4.55;100.00;98654.28;5046798;28;20025;-49
2023/03/09 05:30:00;;;;;;;1.52;1.00;;;;;;;4.60;100.00;98648.44;5049574;28;20114;-50
2023/03/09 05:32:25;;;;;;;0.50;0.30;;;;;;;3.57;100.00;98652.72;5052812;28;20530;-49
2023/03/09 05:34:50;;;;;;;3.78;1.02;;;;;;;4.33;100.00;98668.50;5048851;28;20537;-54
2023/03/09 05:37:16;;;;;;;2.53;1.17;;;;;;;4.48;100.00;98665.75;5051648;28;20476;-51
2023/03/09 05:39:41;;;;;;;1.02;0.52;;;;;;;4.57;100.00;98675.88;5039579;28;20044;-52
2023/03/09 05:42:07;;;;;;;2.75;1.27;;;;;;;4.60;100.00;98672.06;5048589;28;20067;-48
2023/03/09 05:44:32;;;;;;;1.70;1.10;;;;;;;2.90;100.00;98687.97;5048664;28;20025;-50
2023/03/09 05:46:58;;;;;;;1.92;0.95;;;;;;;3.65;100.00;98681.41;5053668;28;20085;-48
2023/03/09 05:49:27;;;;;;;1.20;1.10;;;;;;;4.27;100.00;98674.53;5043922;28;20102;-52
2023/03/09 05:51:53;;;;;;;2.90;1.08;;;;;;;4.43;100.00;98663.69;5048969;28;20033;-48
2023/03/09 05:54:19;;;;;;;1.90;0.90;;;;;;;4.51;100.00;98673.22;5049632;28;20029;-51
2023/03/09 05:56:44;;;;;;;3.30;1.58;;;;;;;4.57;100.00;98675.88;5054548;28;20028;-52
2023/03/09 05:59:09;;;;;;;2.50;1.50;;;;;;;4.62;100.00;98669.22;5044033;28;20392;-48
2023/03/09 06:01:35;;;;;;;2.40;1.27;;;;;;;4.69;100.00;98665.63;5050079;28;20021;-49
2023/03/09 06:04:00;;;;;;;1.27;0.75;;;;;;;4.68;100.00;98669.25;5046892;28;20078;-49
2023/03/09 06:06:25;;;;;;;1.25;0.93;;;;;;;4.66;100.00;98658.13;5044475;28;20120;-49
2023/03/09 06:08:51;;;;;;;1.98;1.52;;;;;;;4.54;100.00;98660.53;5040323;28;20441;-52
2023/03/09 06:11:17;;;;;;;2.95;1.25;;;;;;;4.45;100.00;98653.81;5044817;28;20033;-49
2023/03/09 06:13:42;;;;;;;3.45;1.60;;;;;;;4.50;100.00;98659.31;5047047;28;20044;-49
2023/03/09 06:16:12;;;;;;;2.08;1.10;;;;;;;4.53;100.00;98666.78;5045661;28;20505;-50
2023/03/09 06:18:38;;;;;;;2.00;1.45;;;;;;;4.55;100.00;98656.91;5043298;28;20045;-52
2023/03/09 06:21:05;;;;;;;2.60;1.02;;;;;;;4.54;100.00;98668.41;5046653;28;20432;-49
2023/03/09 06:23:32;;;;;;;2.22;1.50;;;;;;;4.49;100.00;98656.84;5046716;28;20036;-49
2023/03/09 06:25:58;;;;;;;2.35;1.40;;;;;;;4.52;100.00;98649.41;5048217;28;20036;-49
2023/03/09 06:28:23;;;;;;;1.65;1.30;;;;;;;4.43;100.00;98645.34;5045444;28;20025;-52
2023/03/09 06:30:49;;;;;;;1.92;1.17;;;;;;;4.42;100.00;98654.22;5047376;28;20052;-49
2023/03/09 06:33:14;;;;;;;3.53;1.65;;;;;;;4.42;100.00;98643.72;5051500;28;20051;-48
2023/03/09 06:35:40;;;;;;;1.52;1.42;;;;;;;4.37;100.00;98649.56;5045820;28;20055;-54
2023/03/09 06:38:05;;;;;;;1.88;1.25;;;;;;;4.40;100.00;98650.97;5046240;28;20044;-51
2023/03/09 06:40:31;;;;;;;5.13;1.58;;;;;;;4.46;100.00;98646.75;5043851;28;20123;-50
2023/03/09 06:42:57;;;;;;;3.95;1.85;;;;;;;4.45;100.00;98645.94;5047233;28;20045;-49
2023/03/09 06:45:22;;;;;;;2.75;2.03;;;;;;;4.41;100.00;98647.34;5044649;28;20033;-51
2023/03/09 06:47:48;;;;;;;1.83;1.58;;;;;;;4.30;100.00;98650.53;5051591;28;20032;-48
2023/03/09 06:50:14;;;;;;;1.73;1.48;;;;;;;4.24;100.00;98651.31;5046857;28;20037;-49
2023/03/09 06:52:40;;;;;;;2.42;2.15;;;;;;;4.28;100.00;98655.97;5038868;28;20383;-50
2023/03/09 06:55:06;;;;;;;3.78;1.95;;;;;;;4.32;100.00;98661.66;5041883;28;20032;-48
2023/03/09 06:57:31;;;;;;;5.70;2.03;;;;;;;4.37;100.00;98654.81;5036310;28;20033;-52
2023/03/09 06:59:56;;;;;;;2.35;1.52;;;;;;;4.37;100.00;98651.38;5041389;28;20033;-50
2023/03/09 07:02:22;;;;;;;2.35;1.73;;;;;;;4.52;100.00;98649.41;5045810;28;20029;-51
2023/03/09 07:04:47;;;;;;;1.95;1.70;;;;;;;4.49;100.00;98648.97;5043379;28;20033;-47
2023/03/09 07:07:12;;;;;;;2.85;1.65;;;;;;;4.62;100.00;98646.44;5044194;28;20020;-53
2023/03/09 07:09:38;;;;;;;2.05;1.52;;;;;;;4.67;100.00;98649.25;5043641;28;20030;-50
2023/03/09 07:12:04;;;;;;;4.70;1.60;;;;;;;4.81;100.00;98644.84;5035490;28;20041;-52
2023/03/09 07:14:29;;;;;;;3.75;1.92;;;;;;;4.73;100.00;98650.28;5041319;28;20021;-50
2023/03/09 07:16:56;;;;;;;3.15;2.28;;;;;;;4.69;100.00;98644.63;5036876;28;20303;-48
2023/03/09 07:19:22;;;;;;;3.67;2.20;;;;;;;4.56;100.00;98647.19;5039099;28;20119;-50
2023/03/09 07:21:48;;;;;;;5.20;2.03;;;;;;;4.46;100.00;98647.56;5037722;28;20418;-48
2023/03/09 07:24:14;;;;;;;2.25;0.95;;;;;;;4.48;100.00;98639.50;5040420;28;20053;-48
2023/03/09 07:26:40;;;;;;;3.22;1.88;;;;;;;4.66;100.00;98647.63;5040245;28;20066;-49
2023/03/09 07:29:05;;;;;;;5.78;2.72;;;;;;;4.73;100.00;98655.53;5042242;28;20055;-49
2023/03/09 07:31:30;;;;;;;3.22;1.95;;;;;;;4.70;100.00;98646.25;5045771;28;20393;-52
2023/03/09 07:33:57;;;;;;;4.03;1.70;;;;;;;4.63;100.00;98649.84;5047323;28;20054;-50
2023/03/09 07:36:23;;;;;;;3.47;1.52;;;;;;;4.71;100.00;98647.06;5037004;28;20033;-49
2023/03/09 07:38:49;;;;;;;3.40;2.40;;;;;;;4.76;100.00;98649.91;5039558;28;20061;-51
2023/03/09 07:41:14;;;;;;;4.18;1.88;;;;;;;4.78;100.00;98645.25;5037923;28;20037;-52
2023/03/09 07:43:43;;;;;;;5.97;2.40;;;;;;;4.78;100.00;98651.31;5041950;28;20116;-49
2023/03/09 07:46:11;;;;;;;4.25;1.98;;;;;;;4.87;100.00;98651.94;5042890;28;20021;-53
2023/03/09 07:48:37;;;;;;;4.35;2.25;;;;;;;5.03;100.00;98650.75;5044041;28;20021;-52
2023/03/09 07:51:03;;;;;;;2.80;2.05;;;;;;;5.11;100.00;98649.75;5043423;28;20120;-54
2023/03/09 07:53:30;;;;;;;2.78;2.17;;;;;;;4.89;100.00;98651.75;5043214;28;20021;-52
2023/03/09 07:55:57;;;;;;;3.85;1.83;;;;;;;4.93;100.00;98648.53;5045811;28;20068;-51
2023/03/09 07:58:23;;;;;;;6.22;1.88;;;;;;;4.96;100.00;98632.38;5042596;28;20902;-53
2023/03/09 08:00:48;;;;;;;4.60;1.88;;;;;;;5.01;100.00;98629.94;5039889;28;20040;-50
2023/03/09 08:03:13;;;;;;;3.33;1.70;;;;;;;5.06;100.00;98625.91;5040023;28;20083;-52
2023/03/09 08:05:42;;;;;;;3.92;1.73;;;;;;;5.15;100.00;98615.00;5041256;28;20032;-46
2023/03/09 08:08:07;;;;;;;2.17;0.93;;;;;;;5.16;100.00;98614.00;5042396;28;20036;-47
2023/03/09 08:10:34;;;;;;;2.55;1.40;;;;;;;5.19;100.00;98621.47;5041630;28;20029;-48
2023/03/09 08:12:59;;;;;;;1.85;1.58;;;;;;;5.17;100.00;98618.25;5041143;28;20425;-50
2023/03/09 08:15:25;;;;;;;1.70;1.60;;;;;;;5.22;100.00;98612.38;5045722;28;20032;-47
2023/03/09 08:17:50;;;;;;;2.78;1.88;;;;;;;5.30;100.00;98608.75;5049284;28;20127;-48
2023/03/09 08:20:16;;;;;;;2.17;1.13;;;;;;;5.33;100.00;98601.25;5047074;28;20033;-49
2023/03/09 08:22:41;;;;;;;3.08;1.60;;;;;;;5.37;100.00;98599.03;5046021;28;20052;-49
2023/03/09 08:25:08;;;;;;;2.47;1.35;;;;;;;5.36;100.00;98606.09;5050110;28;20025;-48
2023/03/09 08:27:45;;;;;;;2.88;1.45;;;;;;;5.31;100.00;98608.53;5048882;28;20482;-50
2023/03/09 08:30:11;;;;;;;2.03;1.67;;;;;;;5.33;100.00;98614.41;5047371;28;20035;-51
2023/03/09 08:32:37;;;;;;;1.98;1.65;;;;;;;5.29;100.00;98615.00;5044284;28;20439;-51
2023/03/09 08:35:03;;;;;;;3.03;1.90;;;;;;;5.36;100.00;98619.25;5046365;28;20158;-53
2023/03/09 08:37:29;;;;;;;2.90;1.88;;;;;;;5.38;100.00;98614.59;5047119;28;20024;-51
2023/03/09 08:39:54;;;;;;;2.55;2.25;;;;;;;5.37;100.00;98617.41;5045561;28;20037;-50
2023/03/09 08:42:19;;;;;;;2.33;1.58;;;;;;;5.41;100.00;98610.75;5049011;28;20315;-50
2023/03/09 08:44:44;;;;;;;1.55;1.45;;;;;;;5.50;100.00;98614.81;5043430;28;20049;-51
2023/03/09 08:47:10;;;;;;;2.03;1.27;;;;;;;5.57;100.00;98604.28;5049668;28;20061;-52
2023/03/09 08:49:37;;;;;;;3.38;1.95;;;;;;;5.63;100.00;98606.09;5050438;28;20155;-50
2023/03/09 08:52:03;;;;;;;3.75;2.30;;;;;;;5.60;100.00;98604.69;5046745;28;20036;-50
2023/03/09 08:54:28;;;;;;;4.45;2.00;;;;;;;5.62;100.00;98604.47;5048160;28;20032;-53
2023/03/09 08:56:54;;;;;;;4.20;2.38;;;;;;;5.68;100.00;98609.72;5045531;28;20029;-54
2023/03/09 08:59:19;;;;;;;2.88;1.63;;;;;;;5.77;100.00;98612.13;5046233;28;20033;-49
2023/03/09 09:01:44;;;;;;;4.95;3.50;;;;;;;5.90;100.00;98617.38;5048502;28;20040;-47
2023/03/09 09:04:09;;;;;;;3.30;2.38;;;;;;;5.92;100.00;98610.06;5048498;28;20154;-53
2023/03/09 09:06:35;;;;;;;4.10;2.67;;;;;;;6.08;100.00;98606.22;5045030;28;20036;-48
2023/03/09 09:09:00;;;;;;;5.65;1.90;;;;;;;6.15;100.00;98596.47;5044488;28;20086;-52
2023/03/09 09:11:26;;;;;;;4.75;2.28;;;;;;;6.16;100.00;98599.91;5047327;28;20115;-47
2023/03/09 09:13:52;;;;;;;5.78;3.40;;;;;;;6.14;100.00;98597.47;5052951;28;20033;-48
2023/03/09 09:16:17;;;;;;;7.30;2.15;;;;;;;6.04;100.00;98607.63;5048523;28;20036;-53
2023/03/09 09:18:43;;;;;;;6.22;2.55;;;;;;;6.22;100.00;98592.00;5046796;28;20025;-47
2023/03/09 09:21:11;;;;;;;7.70;3.10;;;;;;;6.24;100.00;98594.41;5051386;28;20033;-48
2023/03/09 09:23:38;;;;;;;4.88;2.45;;;;;;;6.31;100.00;98587.31;5040248;28;20036;-51
2023/03/09 09:26:04;;;;;;;4.40;3.25;;;;;;;6.43;100.00;98595.34;5040938;28;20029;-50
2023/03/09 09:28:30;;;;;;;3.10;2.38;;;;;;;6.54;100.00;98592.06;5056077;28;20470;-51
2023/03/09 09:30:58;;;;;;;5.25;2.65;;;;;;;6.52;100.00;98599.34;5051951;28;20090;-49
2023/03/09 09:33:24;;;;;;;3.17;1.30;;;;;;;6.62;100.00;98591.81;5049372;28;20027;-52
2023/03/09 09:36:07;;;;;;;6.05;3.03;;;;;;;6.61;100.00;98581.47;5051712;28;20037;-50
2023/03/09 09:38:35;;;;;;;5.20;2.50;;;;;;;6.63;100.00;98582.06;5051159;28;20029;-51
2023/03/09 09:41:22;;;;;;;4.28;2.15;;;;;;;6.63;100.00;98590.78;5051708;28;20039;-49
2023/03/09 09:43:50;;;;;;;4.32;1.27;;;;;;;6.62;100.00;98583.91;5050492;28;20021;-50
2023/03/09 09:46:19;;;;;;;2.17;1.55;;;;;;;6.68;100.00;98587.50;5048193;28;20035;-54
2023/03/09 09:48:47;;;;;;;4.05;1.83;;;;;;;6.91;100.00;98577.22;5050408;28;20036;-50
2023/03/09 09:51:38;;;;;;;4.13;1.58;;;;;;;6.86;100.00;98574.41;5050517;28;20025;-49
2023/03/09 09:54:13;;;;;;;3.05;1.98;;;;;;;6.84;100.00;98571.22;5048700;28;20036;-52
2023/03/09 09:57:00;;;;;;;2.33;1.50;;;;;;;7.04;100.00;98567.63;5050058;28;20031;-49
2023/03/09 09:59:50;;;;;;;2.65;1.08;;;;;;;7.08;100.00;98566.19;5050279;28;20398;-49
2023/03/09 10:02:42;;;;;;;4.75;1.75;;;;;;;7.05;100.00;98556.88;5047596;28;20032;-51
2023/03/09 10:05:27;;;;;;;3.00;1.80;;;;;;;7.15;100.00;98557.19;5028302;28;20080;-48
2023/03/09 10:07:54;;;;;;;2.33;1.88;;;;;;;7.15;100.00;98562.47;5044727;28;20044;-47
2023/03/09 10:10:26;;;;;;;3.72;1.20;;;;;;;7.17;100.00;98557.75;5041589;28;20382;-47
2023/03/09 10:12:53;;;;;;;3.38;1.67;;;;;;;7.36;100.00;98552.56;5039851;28;20029;-49
2023/03/09 10:15:28;;;;;;;2.15;1.52;;;;;;;7.28;100.00;98539.63;5048824;28;20029;-48
2023/03/09 10:17:58;;;;;;;2.05;1.15;;;;;;;7.31;100.00;98545.28;5049564;28;20114;-48
2023/03/09 10:20:38;;;;;;;1.40;0.90;;;;;;;7.25;100.00;98532.16;5048662;28;20032;-48
2023/03/09 10:23:22;;;;;;;2.95;1.17;;;;;;;7.39;100.00;98529.19;5051696;28;20048;-49
2023/03/09 10:25:51;;;;;;;1.02;0.77;;;;;;;7.43;100.00;98527.75;5047193;28;20041;-50
2023/03/09 10:28:24;;;;;;;1.80;1.05;;;;;;;7.40;100.00;98522.06;5051071;28;20033;-49
2023/03/09 10:30:54;;;;;;;2.05;1.17;;;;;;;7.53;100.00;98524.56;5048491;28;20043;-49
2023/03/09 10:33:33;;;;;;;1.50;0.85;;;;;;;7.68;100.00;98524.22;5050109;28;20029;-47
2023/03/09 10:36:07;;;;;;;2.75;1.40;;;;;;;7.68;100.00;98516.31;5048106;28;20051;-51
2023/03/09 10:38:36;;;;;;;2.78;1.17;;;;;;;7.59;100.00;98520.25;5046872;28;20100;-51
2023/03/09 10:41:02;;;;;;;3.45;1.88;;;;;;;7.54;100.00;98528.03;5047409;28;20060;-49
2023/03/09 10:43:30;;;;;;;1.60;1.20;;;;;;;7.58;100.00;98535.28;5042592;28;20096;-49
2023/03/09 10:46:12;;;;;;;2.58;1.42;;;;;;;7.67;100.00;98533.19;5047148;28;20386;-48
2023/03/09 10:48:38;;;;;;;2.78;1.67;;;;;;;7.70;100.00;98526.66;5049801;28;20029;-47
2023/03/09 10:51:06;;;;;;;4.45;2.15;;;;;;;7.74;100.00;98518.06;5050181;28;20025;-51
2023/03/09 10:53:44;;;;;;;3.20;2.05;;;;;;;7.89;100.00;98519.53;5048209;28;20508;-51
2023/03/09 10:56:16;;;;;;;3.85;1.92;;;;;;;7.92;100.00;98513.81;5043719;28;20072;-50
2023/03/09 10:58:42;;;;;;;4.18;1.98;;;;;;;8.06;100.00;98508.16;5046367;28;20075;-51
2023/03/09 11:01:16;;;;;;;3.17;2.30;;;;;;;8.09;100.00;98501.63;5050365;28;20029;-53
2023/03/09 11:03:43;;;;;;;7.82;3.38;;;;;;;7.99;100.00;98514.53;5047921;28;20032;-50
2023/03/09 11:06:21;;;;;;;5.85;3.00;;;;;;;7.95;100.00;98510.72;5046787;28;20428;-52
2023/03/09 11:09:19;;;;;;;3.45;2.30;;;;;;;7.91;100.00;98506.94;5048246;28;20033;-47
2023/03/09 11:11:47;;;;;;;9.30;3.58;;;;;;;7.98;100.00;98503.19;5040283;28;20033;-52
2023/03/09 11:14:23;;;;;;;5.25;2.55;;;;;;;8.06;100.00;98499.44;5040177;28;20044;-53
2023/03/09 11:16:50;;;;;;;4.68;2.72;;;;;;;8.14;100.00;98495.69;5046549;28;20033;-47
2023/03/09 11:19:18;;;;;;;5.15;2.97;;;;;;;8.29;100.00;98488.16;5047828;28;20025;-48
2023/03/09 11:21:57;;;;;;;5.40;2.75;;;;;;;8.34;100.00;98495.38;5047443;28;20039;-51
2023/03/09 11:24:27;;;;;;;4.57;2.60;;;;;;;8.33;100.00;98489.31;5042971;28;20512;-48
2023/03/09 11:27:02;;;;;;;3.95;1.83;;;;;;;8.36;100.00;98483.56;5049424;28;20028;-47
2023/03/09 11:30:01;;;;;;;4.05;2.40;;;;;;;8.46;100.00;98483.84;5048244;28;20040;-54
2023/03/09 11:32:27;;;;;;;4.63;2.85;;;;;;;8.52;100.00;98482.97;5047236;28;20386;-50
2023/03/09 11:34:52;;;;;;;5.32;3.30;;;;;;;8.64;100.00;98484.81;5049655;28;20033;-48